createdAt,value
2022-09-10T00:00:43.422Z,16.26
2022-09-10T00:05:45.611Z,16.20
2022-09-10T00:10:44.912Z,16.14
2022-09-10T00:15:46.003Z,16.03
2022-09-10T00:20:47.174Z,15.89
2022-09-10T00:25:48.362Z,15.93
2022-09-10T00:30:50.452Z,16.00
2022-09-10T00:35:49.570Z,15.99
2022-09-10T00:40:50.663Z,16.04
2022-09-10T00:45:51.912Z,16.25
2022-09-10T00:50:53.171Z,16.27
2022-09-10T00:55:53.291Z,16.23
2022-09-10T01:00:54.505Z,16.30
2022-09-10T01:05:56.587Z,16.07
2022-09-10T01:10:56.668Z,15.96
2022-09-10T01:15:55.875Z,15.82
2022-09-10T01:20:56.960Z,15.68
2022-09-10T01:25:58.130Z,15.64
2022-09-10T01:30:59.205Z,15.66
2022-09-10T01:36:00.373Z,15.79
2022-09-10T01:41:01.484Z,15.89
2022-09-10T01:46:02.740Z,15.97
2022-09-10T01:51:03.976Z,15.93
2022-09-10T01:56:05.218Z,15.88
2022-09-10T02:01:06.537Z,15.72
2022-09-10T02:06:07.704Z,15.46
2022-09-10T02:11:08.885Z,15.28
2022-09-10T02:16:10.372Z,15.12
2022-09-10T02:21:08.447Z,15.06
2022-09-10T02:26:09.955Z,15.08
2022-09-10T02:31:10.118Z,15.02
2022-09-10T02:36:09.261Z,15.09
2022-09-10T02:41:10.473Z,15.08
2022-09-10T02:46:12.587Z,15.05
2022-09-10T02:51:11.749Z,15.15
2022-09-10T02:56:12.881Z,15.41
2022-09-10T03:01:14.096Z,15.52
2022-09-10T03:06:14.296Z,15.63
2022-09-10T03:11:15.488Z,15.76
2022-09-10T03:16:16.804Z,15.85
2022-09-10T03:21:18.034Z,15.81
2022-09-10T03:26:19.121Z,15.74
2022-09-10T03:31:20.310Z,15.68
2022-09-10T03:36:22.452Z,15.66
2022-09-10T03:41:21.701Z,15.57
2022-09-10T03:46:22.955Z,14.99
2022-09-10T03:51:24.214Z,14.67
2022-09-10T03:56:25.495Z,14.71
2022-09-10T04:01:26.850Z,14.78
2022-09-10T04:06:27.925Z,14.90
2022-09-10T04:11:29.029Z,14.80
2022-09-10T04:16:30.143Z,14.75
2022-09-10T04:21:31.401Z,14.71
2022-09-10T04:26:33.525Z,14.72
2022-09-10T04:31:32.760Z,14.78
2022-09-10T04:36:34.005Z,14.83
2022-09-10T04:41:36.107Z,14.83
2022-09-10T04:46:35.224Z,14.87
2022-09-10T04:51:36.404Z,14.83
2022-09-10T04:56:38.579Z,14.72
2022-09-10T05:01:37.686Z,14.68
2022-09-10T05:06:38.795Z,14.68
2022-09-10T05:11:39.967Z,14.72
2022-09-10T05:16:42.165Z,14.80
2022-09-10T05:21:41.239Z,14.87
2022-09-10T05:26:42.335Z,14.86
2022-09-10T05:31:43.451Z,14.91
2022-09-10T05:36:44.521Z,14.88
2022-09-10T05:41:45.761Z,14.84
2022-09-10T05:46:47.863Z,14.93
2022-09-10T05:51:47.075Z,15.09
2022-09-10T05:56:48.296Z,15.13
2022-09-10T06:01:50.435Z,15.26
2022-09-10T06:06:49.698Z,15.39
2022-09-10T06:11:50.779Z,15.56
2022-09-10T06:16:52.174Z,15.72
2022-09-10T06:21:54.317Z,15.94
2022-09-10T06:26:53.418Z,16.12
2022-09-10T06:31:54.707Z,16.20
2022-09-10T06:36:55.874Z,16.04
2022-09-10T06:41:57.995Z,15.92
2022-09-10T06:47:39.420Z,15.85
2022-09-10T06:51:57.148Z,15.78
2022-09-10T06:57:00.260Z,15.79
2022-09-10T07:01:59.395Z,15.82
2022-09-10T07:07:00.676Z,15.68
2022-09-10T07:12:03.747Z,15.70
2022-09-10T07:17:03.837Z,15.54
2022-09-10T07:22:03.920Z,15.45
2022-09-10T07:27:03.008Z,15.57
2022-09-10T07:32:04.140Z,15.51
2022-09-10T07:37:05.250Z,15.63
2022-09-10T07:42:06.346Z,15.59
2022-09-10T07:47:07.635Z,15.61
2022-09-10T07:52:09.771Z,15.88
2022-09-10T07:57:08.858Z,16.18
2022-09-10T08:02:10.008Z,16.55
2022-09-10T08:07:12.089Z,16.85
2022-09-10T08:12:12.187Z,17.11
2022-09-10T08:17:11.281Z,17.15
2022-09-10T08:22:13.620Z,17.06
2022-09-10T08:27:12.873Z,16.81
2022-09-10T08:32:13.994Z,16.95
2022-09-10T08:37:15.137Z,16.85
2022-09-10T08:42:22.123Z,16.73
2022-09-10T08:47:18.216Z,16.75
2022-09-10T08:52:17.454Z,16.88
2022-09-10T08:57:18.656Z,17.06
2022-09-10T09:02:44.930Z,16.96
2022-09-10T09:07:20.711Z,17.03
2022-09-10T09:12:21.802Z,17.32
2022-09-10T09:17:26.222Z,17.23
2022-09-10T09:22:23.328Z,17.62
2022-09-10T09:27:23.415Z,17.20
2022-09-10T09:32:24.550Z,17.33
2022-09-10T09:37:25.637Z,17.70
2022-09-10T09:42:28.755Z,18.09
2022-09-10T09:47:27.889Z,18.31
2022-09-10T09:52:28.988Z,18.39
2022-09-10T09:57:30.097Z,18.86
2022-09-10T10:02:31.248Z,18.57
2022-09-10T10:07:33.393Z,18.24
2022-09-10T10:12:34.498Z,18.07
2022-09-10T10:17:35.700Z,17.97
2022-09-10T10:22:34.825Z,17.81
2022-09-10T10:27:37.925Z,17.76
2022-09-10T10:32:38.044Z,17.71
2022-09-10T10:37:38.130Z,17.89
2022-09-10T10:42:37.217Z,18.59
2022-09-10T10:47:39.303Z,19.17
2022-09-10T10:52:38.454Z,19.46
2022-09-10T10:57:39.554Z,19.47
2022-09-10T11:02:40.689Z,19.94
2022-09-10T11:07:41.993Z,20.39
2022-09-10T11:12:43.398Z,20.64
2022-09-10T11:17:44.508Z,20.96
2022-09-10T11:22:46.736Z,21.97
2022-09-10T11:27:46.982Z,21.67
2022-09-10T11:32:46.057Z,21.88
2022-09-10T11:37:47.154Z,21.53
2022-09-10T11:42:48.411Z,22.19
2022-09-10T11:47:49.489Z,22.83
2022-09-10T11:52:50.705Z,23.22
2022-09-10T11:57:52.824Z,23.14
2022-09-10T12:02:51.914Z,22.92
2022-09-10T12:07:54.011Z,22.56
2022-09-10T12:12:53.137Z,22.13
2022-09-10T12:17:54.407Z,22.80
2022-09-10T12:22:55.486Z,23.05
2022-09-10T12:27:56.581Z,22.94
2022-09-10T12:32:57.703Z,22.89
2022-09-10T12:37:59.810Z,21.97
2022-09-10T12:42:59.011Z,22.34
2022-09-10T12:48:01.268Z,22.60
2022-09-10T12:53:02.375Z,21.45
2022-09-10T12:58:02.502Z,19.90
2022-09-10T13:03:02.597Z,19.35
2022-09-10T13:08:05.969Z,18.74
2022-09-10T13:13:04.057Z,19.14
2022-09-10T13:18:03.178Z,19.47
2022-09-10T13:23:04.389Z,18.82
2022-09-10T13:28:05.566Z,18.82
2022-09-10T13:33:06.680Z,18.99
2022-09-10T13:38:07.779Z,18.49
2022-09-10T13:43:09.864Z,18.17
2022-09-10T13:48:08.971Z,17.81
2022-09-10T13:53:10.081Z,17.38
2022-09-10T13:58:11.170Z,17.82
2022-09-10T14:03:13.262Z,18.06
2022-09-10T14:08:13.367Z,18.34
2022-09-10T14:13:13.489Z,18.17
2022-09-10T14:18:12.638Z,18.59
2022-09-10T14:23:13.776Z,19.23
2022-09-10T14:28:15.889Z,19.01
2022-09-10T14:33:15.956Z,18.87
2022-09-10T14:38:16.075Z,19.05
2022-09-10T14:43:16.224Z,18.86
2022-09-10T14:48:15.515Z,19.14
2022-09-10T14:53:16.625Z,18.76
2022-09-10T14:58:17.752Z,19.43
2022-09-10T15:03:18.867Z,19.47
2022-09-10T15:08:19.991Z,19.87
2022-09-10T15:13:21.190Z,19.60
2022-09-10T15:18:22.339Z,19.73
2022-09-10T15:23:23.469Z,20.13
2022-09-10T15:28:24.847Z,20.47
2022-09-10T15:33:27.109Z,20.28
2022-09-10T15:38:27.395Z,20.08
2022-09-10T15:43:26.697Z,18.98
2022-09-10T15:48:27.960Z,18.87
2022-09-10T15:53:29.160Z,18.67
2022-09-10T15:58:31.239Z,18.58
2022-09-10T16:03:30.395Z,18.72
2022-09-10T16:08:31.690Z,18.99
2022-09-10T16:13:32.923Z,18.42
2022-09-10T16:18:34.024Z,18.50
2022-09-10T16:23:35.274Z,18.61
2022-09-10T16:28:36.739Z,18.42
2022-09-10T16:33:35.839Z,18.36
2022-09-10T16:38:37.175Z,18.25
2022-09-10T16:43:38.409Z,17.88
2022-09-10T16:48:39.667Z,17.74
2022-09-10T16:53:41.899Z,17.89
2022-09-10T16:58:41.120Z,17.89
2022-09-10T17:03:42.215Z,17.84
2022-09-10T17:08:43.427Z,17.99
2022-09-10T17:13:45.521Z,18.02
2022-09-10T17:18:44.750Z,17.89
2022-09-10T17:23:45.843Z,17.79
2022-09-10T17:28:47.065Z,17.66
2022-09-10T17:33:48.166Z,17.47
2022-09-10T17:38:49.444Z,17.30
2022-09-10T17:43:50.703Z,17.32
2022-09-10T17:48:51.956Z,17.23
2022-09-10T17:53:54.050Z,16.95
2022-09-10T17:58:53.295Z,16.80
2022-09-10T18:03:55.409Z,16.77
2022-09-10T18:08:53.656Z,16.83
2022-09-10T18:13:54.940Z,16.71
2022-09-10T18:18:56.139Z,16.73
2022-09-10T18:23:57.399Z,16.75
2022-09-10T18:28:58.972Z,16.78
2022-09-10T18:33:58.425Z,16.71
2022-09-10T18:38:59.774Z,16.62
2022-09-10T18:44:01.241Z,16.56
2022-09-10T18:49:00.647Z,16.53
2022-09-10T18:54:02.077Z,16.55
2022-09-10T18:59:04.328Z,16.38
2022-09-10T19:04:04.645Z,16.18
2022-09-10T19:09:03.762Z,16.03
2022-09-10T19:14:04.908Z,16.01
2022-09-10T19:19:06.289Z,15.94
2022-09-10T19:24:08.526Z,15.88
2022-09-10T19:29:07.789Z,15.75
2022-09-10T19:34:09.266Z,15.88
2022-09-10T19:39:09.407Z,15.79
2022-09-10T19:44:08.771Z,15.82
2022-09-10T19:49:10.084Z,15.78
2022-09-10T19:54:11.344Z,15.78
2022-09-10T19:59:12.590Z,15.75
2022-09-10T20:04:13.828Z,15.66
2022-09-10T20:09:15.059Z,15.59
2022-09-10T20:14:17.305Z,15.57
2022-09-10T20:19:17.493Z,15.60
2022-09-10T20:24:17.638Z,15.60
2022-09-10T20:29:17.740Z,15.51
2022-09-10T20:34:16.850Z,15.59
2022-09-10T20:39:17.995Z,15.43
2022-09-10T20:44:19.116Z,15.56
2022-09-10T20:49:20.405Z,15.52
2022-09-10T20:54:21.613Z,15.42
2022-09-10T20:59:27.566Z,15.43
2022-09-10T21:04:24.005Z,15.30
2022-09-10T21:09:23.122Z,15.27
2022-09-10T21:14:24.213Z,15.39
2022-09-10T21:19:27.319Z,15.38
2022-09-10T21:24:26.415Z,15.33
2022-09-10T21:29:28.552Z,15.30
2022-09-10T21:34:27.811Z,15.20
2022-09-10T21:39:28.900Z,15.19
2022-09-10T21:44:30.128Z,15.36
2022-09-10T21:49:31.346Z,15.36
2022-09-10T21:54:32.536Z,15.31
2022-09-10T21:59:33.643Z,15.17
2022-09-10T22:04:35.757Z,15.12
2022-09-10T22:09:36.061Z,15.17
2022-09-10T22:14:35.216Z,15.13
2022-09-10T22:19:36.391Z,15.24
2022-09-10T22:24:37.517Z,15.12
2022-09-10T22:29:39.834Z,15.21
2022-09-10T22:34:40.971Z,15.26
2022-09-10T22:39:41.114Z,15.17
2022-09-10T22:44:40.299Z,15.28
2022-09-10T22:49:41.426Z,15.27
2022-09-10T22:54:42.515Z,15.26
2022-09-10T22:59:44.624Z,15.17
2022-09-10T23:04:43.760Z,15.02
2022-09-10T23:09:45.010Z,15.09
2022-09-10T23:14:46.148Z,15.13
2022-09-10T23:19:47.229Z,15.17
2022-09-10T23:24:48.319Z,15.24
2022-09-10T23:29:49.592Z,15.38
2022-09-10T23:34:50.741Z,15.31
2022-09-10T23:39:51.878Z,15.39
2022-09-10T23:44:53.999Z,15.39
2022-09-10T23:49:54.121Z,15.24
2022-09-10T23:54:53.178Z,15.21
2022-09-10T23:59:54.281Z,15.23
